Terminal Aerodrome Forecast
Issued by NWS Cleveland, OH

Home | Current Version | Previous Version | Graphics & Text | Print | Product List | Glossary Off
Versions: 1 2 3 4 5 6 7 8 9 10 11 12 13 14 15 16 17

000
FTUS41 KCLE 300500
TAFMFD
TAF
KMFD 300520Z 3006/3106 17007KT P6SM BKN250
     FM300900 19010KT P6SM BKN250
     FM301500 19010G20KT P6SM SCT060 BKN120
     FM302000 20015G24KT P6SM VCTS BKN060CB
     FM310200 20011KT P6SM OVC100=

USA.gov is the U.S. government's official web portal to all federal, state and local government web resources and services.